sensor_id;sensor_type;location;lat;lon;timestamp;temperature;humidity
72762;SHT30;60886;55.034;73.150;2023-10-09T00:01:40;11.29;65.17
72762;SHT30;60886;55.034;73.150;2023-10-09T00:04:48;11.30;65.29
72762;SHT30;60886;55.034;73.150;2023-10-09T00:07:52;11.35;65.23
72762;SHT30;60886;55.034;73.150;2023-10-09T00:10:59;11.35;65.20
72762;SHT30;60886;55.034;73.150;2023-10-09T00:14:14;11.30;65.31
72762;SHT30;60886;55.034;73.150;2023-10-09T00:17:20;11.33;65.38
72762;SHT30;60886;55.034;73.150;2023-10-09T00:20:23;11.39;65.32
72762;SHT30;60886;55.034;73.150;2023-10-09T00:23:42;11.46;65.15
72762;SHT30;60886;55.034;73.150;2023-10-09T00:26:43;11.47;65.23
72762;SHT30;60886;55.034;73.150;2023-10-09T00:29:49;11.44;65.60
72762;SHT30;60886;55.034;73.150;2023-10-09T00:32:50;11.49;65.52
72762;SHT30;60886;55.034;73.150;2023-10-09T00:36:08;11.50;65.75
72762;SHT30;60886;55.034;73.150;2023-10-09T00:39:19;11.47;65.77
72762;SHT30;60886;55.034;73.150;2023-10-09T00:42:40;11.47;66.13
72762;SHT30;60886;55.034;73.150;2023-10-09T00:45:42;11.50;66.25
72762;SHT30;60886;55.034;73.150;2023-10-09T00:48:48;11.50;66.36
72762;SHT30;60886;55.034;73.150;2023-10-09T00:51:51;11.56;66.36
72762;SHT30;60886;55.034;73.150;2023-10-09T00:54:59;11.59;66.32
72762;SHT30;60886;55.034;73.150;2023-10-09T00:58:06;11.59;66.38
72762;SHT30;60886;55.034;73.150;2023-10-09T01:01:19;11.60;66.49
72762;SHT30;60886;55.034;73.150;2023-10-09T01:04:28;11.59;66.55
72762;SHT30;60886;55.034;73.150;2023-10-09T01:07:40;11.62;66.79
72762;SHT30;60886;55.034;73.150;2023-10-09T01:10:47;11.60;66.72
72762;SHT30;60886;55.034;73.150;2023-10-09T01:13:54;11.58;66.77
72762;SHT30;60886;55.034;73.150;2023-10-09T01:17:04;11.59;66.81
72762;SHT30;60886;55.034;73.150;2023-10-09T01:20:09;11.60;66.77
72762;SHT30;60886;55.034;73.150;2023-10-09T01:23:23;11.56;66.87
72762;SHT30;60886;55.034;73.150;2023-10-09T01:26:25;11.55;67.16
72762;SHT30;60886;55.034;73.150;2023-10-09T01:29:27;11.58;66.99
72762;SHT30;60886;55.034;73.150;2023-10-09T01:32:40;11.60;67.06
72762;SHT30;60886;55.034;73.150;2023-10-09T01:35:41;11.59;67.15
72762;SHT30;60886;55.034;73.150;2023-10-09T01:38:48;11.60;67.06
72762;SHT30;60886;55.034;73.150;2023-10-09T01:41:52;11.59;67.20
72762;SHT30;60886;55.034;73.150;2023-10-09T01:44:59;11.56;67.34
72762;SHT30;60886;55.034;73.150;2023-10-09T01:48:12;11.58;67.49
72762;SHT30;60886;55.034;73.150;2023-10-09T01:51:15;11.58;67.31
72762;SHT30;60886;55.034;73.150;2023-10-09T01:54:18;11.55;67.57
72762;SHT30;60886;55.034;73.150;2023-10-09T01:57:40;11.55;67.50
72762;SHT30;60886;55.034;73.150;2023-10-09T02:00:45;11.47;67.75
72762;SHT30;60886;55.034;73.150;2023-10-09T02:03:50;11.52;67.79
72762;SHT30;60886;55.034;73.150;2023-10-09T02:06:53;11.55;67.69
72762;SHT30;60886;55.034;73.150;2023-10-09T02:09:55;11.55;67.53
72762;SHT30;60886;55.034;73.150;2023-10-09T02:13:02;11.58;67.34
72762;SHT30;60886;55.034;73.150;2023-10-09T02:16:12;11.60;67.49
72762;SHT30;60886;55.034;73.150;2023-10-09T02:19:16;11.62;67.32
72762;SHT30;60886;55.034;73.150;2023-10-09T02:22:39;11.65;67.21
72762;SHT30;60886;55.034;73.150;2023-10-09T02:25:42;11.63;67.28
72762;SHT30;60886;55.034;73.150;2023-10-09T02:28:45;11.67;67.13
72762;SHT30;60886;55.034;73.150;2023-10-09T02:32:00;11.73;66.74
72762;SHT30;60886;55.034;73.150;2023-10-09T02:35:14;11.72;66.91
72762;SHT30;60886;55.034;73.150;2023-10-09T02:38:34;11.74;66.69
72762;SHT30;60886;55.034;73.150;2023-10-09T02:41:41;11.80;66.48
72762;SHT30;60886;55.034;73.150;2023-10-09T02:44:50;11.80;66.66
72762;SHT30;60886;55.034;73.150;2023-10-09T02:47:53;11.77;66.51
72762;SHT30;60886;55.034;73.150;2023-10-09T02:50:56;11.86;66.63
72762;SHT30;60886;55.034;73.150;2023-10-09T02:54:00;11.90;66.29
72762;SHT30;60886;55.034;73.150;2023-10-09T02:57:12;11.94;66.22
72762;SHT30;60886;55.034;73.150;2023-10-09T03:00:23;11.95;66.11
72762;SHT30;60886;55.034;73.150;2023-10-09T03:03:33;11.95;66.16
72762;SHT30;60886;55.034;73.150;2023-10-09T03:06:37;11.95;65.94
72762;SHT30;60886;55.034;73.150;2023-10-09T03:09:47;12.04;66.07
72762;SHT30;60886;55.034;73.150;2023-10-09T03:12:49;12.10;65.88
72762;SHT30;60886;55.034;73.150;2023-10-09T03:15:54;12.14;65.83
72762;SHT30;60886;55.034;73.150;2023-10-09T03:18:56;12.14;65.74
72762;SHT30;60886;55.034;73.150;2023-10-09T03:21:57;12.16;65.82
72762;SHT30;60886;55.034;73.150;2023-10-09T03:24:59;12.21;65.94
72762;SHT30;60886;55.034;73.150;2023-10-09T03:28:06;12.17;66.38
72762;SHT30;60886;55.034;73.150;2023-10-09T03:31:11;12.20;66.54
72762;SHT30;60886;55.034;73.150;2023-10-09T03:34:28;12.17;66.61
72762;SHT30;60886;55.034;73.150;2023-10-09T03:37:39;12.28;66.55
72762;SHT30;60886;55.034;73.150;2023-10-09T03:40:44;12.38;66.45
72762;SHT30;60886;55.034;73.150;2023-10-09T03:43:49;12.38;66.18
72762;SHT30;60886;55.034;73.150;2023-10-09T03:46:51;12.44;65.98
72762;SHT30;60886;55.034;73.150;2023-10-09T03:49:55;12.54;65.86
72762;SHT30;60886;55.034;73.150;2023-10-09T03:52:57;12.56;65.55
72762;SHT30;60886;55.034;73.150;2023-10-09T03:55:58;12.56;65.78
72762;SHT30;60886;55.034;73.150;2023-10-09T03:59:00;12.58;65.61
72762;SHT30;60886;55.034;73.150;2023-10-09T04:02:03;12.68;66.00
72762;SHT30;60886;55.034;73.150;2023-10-09T04:05:06;12.76;65.58
72762;SHT30;60886;55.034;73.150;2023-10-09T04:08:12;12.89;65.30
72762;SHT30;60886;55.034;73.150;2023-10-09T04:11:29;12.98;65.07
72762;SHT30;60886;55.034;73.150;2023-10-09T04:14:31;13.09;65.02
72762;SHT30;60886;55.034;73.150;2023-10-09T04:17:39;13.09;64.50
72762;SHT30;60886;55.034;73.150;2023-10-09T04:20:44;13.16;64.79
72762;SHT30;60886;55.034;73.150;2023-10-09T04:24:05;13.32;64.11
72762;SHT30;60886;55.034;73.150;2023-10-09T04:27:12;13.39;64.70
72762;SHT30;60886;55.034;73.150;2023-10-09T04:30:14;13.47;64.14
72762;SHT30;60886;55.034;73.150;2023-10-09T04:33:17;13.49;63.76
72762;SHT30;60886;55.034;73.150;2023-10-09T04:36:41;13.51;63.76
72762;SHT30;60886;55.034;73.150;2023-10-09T04:40:09;13.67;63.84
72762;SHT30;60886;55.034;73.150;2023-10-09T04:43:16;13.73;63.90
72762;SHT30;60886;55.034;73.150;2023-10-09T04:46:23;13.91;63.52
72762;SHT30;60886;55.034;73.150;2023-10-09T04:49:27;14.04;63.45
72762;SHT30;60886;55.034;73.150;2023-10-09T04:52:29;14.15;63.58
72762;SHT30;60886;55.034;73.150;2023-10-09T04:55:31;14.07;63.17
72762;SHT30;60886;55.034;73.150;2023-10-09T04:58:42;13.94;63.67
72762;SHT30;60886;55.034;73.150;2023-10-09T05:01:45;14.01;63.76
72762;SHT30;60886;55.034;73.150;2023-10-09T05:04:58;14.00;63.91
72762;SHT30;60886;55.034;73.150;2023-10-09T05:08:18;14.04;64.26
72762;SHT30;60886;55.034;73.150;2023-10-09T05:11:24;14.07;64.01
72762;SHT30;60886;55.034;73.150;2023-10-09T05:14:43;14.18;64.34
72762;SHT30;60886;55.034;73.150;2023-10-09T05:18:05;14.08;64.39
72762;SHT30;60886;55.034;73.150;2023-10-09T05:21:11;14.18;64.57
72762;SHT30;60886;55.034;73.150;2023-10-09T05:24:31;14.20;64.63
72762;SHT30;60886;55.034;73.150;2023-10-09T05:27:44;14.22;64.33
72762;SHT30;60886;55.034;73.150;2023-10-09T05:30:46;14.28;64.22
72762;SHT30;60886;55.034;73.150;2023-10-09T05:34:00;14.31;64.25
72762;SHT30;60886;55.034;73.150;2023-10-09T05:37:06;14.46;64.29
72762;SHT30;60886;55.034;73.150;2023-10-09T05:40:39;14.58;64.43
72762;SHT30;60886;55.034;73.150;2023-10-09T05:43:50;14.68;64.29
72762;SHT30;60886;55.034;73.150;2023-10-09T05:47:10;14.66;64.23
72762;SHT30;60886;55.034;73.150;2023-10-09T05:50:30;14.61;64.46
72762;SHT30;60886;55.034;73.150;2023-10-09T05:53:35;14.56;64.73
72762;SHT30;60886;55.034;73.150;2023-10-09T05:56:46;14.64;65.04
72762;SHT30;60886;55.034;73.150;2023-10-09T06:00:06;14.65;65.05
72762;SHT30;60886;55.034;73.150;2023-10-09T06:03:26;14.51;65.32
72762;SHT30;60886;55.034;73.150;2023-10-09T06:06:46;14.45;65.80
72762;SHT30;60886;55.034;73.150;2023-10-09T06:09:57;14.36;66.10
72762;SHT30;60886;55.034;73.150;2023-10-09T06:12:59;14.34;66.53
72762;SHT30;60886;55.034;73.150;2023-10-09T06:16:05;14.35;66.87
72762;SHT30;60886;55.034;73.150;2023-10-09T06:19:33;14.25;67.29
72762;SHT30;60886;55.034;73.150;2023-10-09T06:22:44;14.29;67.37
72762;SHT30;60886;55.034;73.150;2023-10-09T06:25:57;14.29;66.99
72762;SHT30;60886;55.034;73.150;2023-10-09T06:29:06;14.32;67.90
72762;SHT30;60886;55.034;73.150;2023-10-09T06:32:18;14.42;67.85
72762;SHT30;60886;55.034;73.150;2023-10-09T06:35:22;14.36;68.24
72762;SHT30;60886;55.034;73.150;2023-10-09T06:38:23;14.52;68.61
72762;SHT30;60886;55.034;73.150;2023-10-09T06:41:34;14.68;67.73
72762;SHT30;60886;55.034;73.150;2023-10-09T06:44:38;14.56;68.16
72762;SHT30;60886;55.034;73.150;2023-10-09T06:47:55;14.71;67.89
72762;SHT30;60886;55.034;73.150;2023-10-09T06:51:19;14.80;67.22
72762;SHT30;60886;55.034;73.150;2023-10-09T06:54:28;14.82;67.80
72762;SHT30;60886;55.034;73.150;2023-10-09T06:57:39;14.83;67.74
72762;SHT30;60886;55.034;73.150;2023-10-09T07:00:59;14.79;68.56
72762;SHT30;60886;55.034;73.150;2023-10-09T07:04:22;14.86;67.98
72762;SHT30;60886;55.034;73.150;2023-10-09T07:07:39;14.82;67.70
72762;SHT30;60886;55.034;73.150;2023-10-09T07:10:51;14.85;67.68
72762;SHT30;60886;55.034;73.150;2023-10-09T07:14:21;14.65;68.29
72762;SHT30;60886;55.034;73.150;2023-10-09T07:17:39;14.68;68.87
72762;SHT30;60886;55.034;73.150;2023-10-09T07:20:41;14.62;69.13
72762;SHT30;60886;55.034;73.150;2023-10-09T07:23:46;14.48;69.65
72762;SHT30;60886;55.034;73.150;2023-10-09T07:26:50;14.48;70.01
72762;SHT30;60886;55.034;73.150;2023-10-09T07:29:54;14.46;70.00
72762;SHT30;60886;55.034;73.150;2023-10-09T07:33:00;14.45;70.26
72762;SHT30;60886;55.034;73.150;2023-10-09T07:36:11;14.34;70.80
72762;SHT30;60886;55.034;73.150;2023-10-09T07:39:14;14.32;71.36
72762;SHT30;60886;55.034;73.150;2023-10-09T07:42:17;14.41;71.66
72762;SHT30;60886;55.034;73.150;2023-10-09T07:45:35;14.52;71.32
72762;SHT30;60886;55.034;73.150;2023-10-09T07:48:37;14.46;72.00
72762;SHT30;60886;55.034;73.150;2023-10-09T07:51:49;14.52;71.63
72762;SHT30;60886;55.034;73.150;2023-10-09T07:54:54;14.58;71.53
72762;SHT30;60886;55.034;73.150;2023-10-09T07:58:04;14.65;70.64
72762;SHT30;60886;55.034;73.150;2023-10-09T08:01:12;14.61;70.47
72762;SHT30;60886;55.034;73.150;2023-10-09T08:07:39;14.69;70.00
72762;SHT30;60886;55.034;73.150;2023-10-09T08:10:55;14.75;69.93
72762;SHT30;60886;55.034;73.150;2023-10-09T08:14:15;14.76;69.47
72762;SHT30;60886;55.034;73.150;2023-10-09T08:17:39;14.87;69.11
72762;SHT30;60886;55.034;73.150;2023-10-09T08:20:49;14.92;69.11
72762;SHT30;60886;55.034;73.150;2023-10-09T08:23:59;14.99;68.71
72762;SHT30;60886;55.034;73.150;2023-10-09T08:27:05;15.03;68.54
72762;SHT30;60886;55.034;73.150;2023-10-09T08:30:25;15.07;68.96
72762;SHT30;60886;55.034;73.150;2023-10-09T08:33:27;15.17;68.93
72762;SHT30;60886;55.034;73.150;2023-10-09T08:36:28;15.30;68.85
72762;SHT30;60886;55.034;73.150;2023-10-09T08:39:37;15.37;68.51
72762;SHT30;60886;55.034;73.150;2023-10-09T08:42:39;15.50;68.80
72762;SHT30;60886;55.034;73.150;2023-10-09T08:45:46;15.44;67.94
72762;SHT30;60886;55.034;73.150;2023-10-09T08:48:48;15.44;68.29
72762;SHT30;60886;55.034;73.150;2023-10-09T08:51:50;15.40;68.42
72762;SHT30;60886;55.034;73.150;2023-10-09T08:54:53;15.47;68.22
72762;SHT30;60886;55.034;73.150;2023-10-09T08:57:55;15.49;67.88
72762;SHT30;60886;55.034;73.150;2023-10-09T09:00:59;15.50;68.04
72762;SHT30;60886;55.034;73.150;2023-10-09T09:04:01;15.44;68.26
72762;SHT30;60886;55.034;73.150;2023-10-09T09:07:05;15.41;68.22
72762;SHT30;60886;55.034;73.150;2023-10-09T09:10:09;15.50;68.58
72762;SHT30;60886;55.034;73.150;2023-10-09T09:13:22;15.57;68.57
72762;SHT30;60886;55.034;73.150;2023-10-09T09:16:25;15.58;68.09
72762;SHT30;60886;55.034;73.150;2023-10-09T09:19:32;15.67;68.19
72762;SHT30;60886;55.034;73.150;2023-10-09T09:22:52;15.78;67.89
72762;SHT30;60886;55.034;73.150;2023-10-09T09:25:55;15.84;67.72
72762;SHT30;60886;55.034;73.150;2023-10-09T09:29:00;15.81;67.44
72762;SHT30;60886;55.034;73.150;2023-10-09T09:32:03;15.88;67.85
72762;SHT30;60886;55.034;73.150;2023-10-09T09:35:17;16.00;67.39
72762;SHT30;60886;55.034;73.150;2023-10-09T09:38:21;16.01;67.26
72762;SHT30;60886;55.034;73.150;2023-10-09T09:41:25;15.91;67.20
72762;SHT30;60886;55.034;73.150;2023-10-09T09:44:28;15.85;67.02
72762;SHT30;60886;55.034;73.150;2023-10-09T09:47:43;15.78;67.18
72762;SHT30;60886;55.034;73.150;2023-10-09T09:50:52;15.81;67.27
72762;SHT30;60886;55.034;73.150;2023-10-09T09:53:55;15.82;67.26
72762;SHT30;60886;55.034;73.150;2023-10-09T09:56:58;15.77;67.33
72762;SHT30;60886;55.034;73.150;2023-10-09T10:00:01;15.70;67.77
72762;SHT30;60886;55.034;73.150;2023-10-09T10:03:16;15.70;67.99
72762;SHT30;60886;55.034;73.150;2023-10-09T10:06:20;15.67;68.21
72762;SHT30;60886;55.034;73.150;2023-10-09T10:09:39;15.62;68.68
72762;SHT30;60886;55.034;73.150;2023-10-09T10:19:04;15.61;69.36
72762;SHT30;60886;55.034;73.150;2023-10-09T10:22:26;15.61;69.20
72762;SHT30;60886;55.034;73.150;2023-10-09T10:29:15;15.54;70.20
72762;SHT30;60886;55.034;73.150;2023-10-09T10:35:54;15.50;70.16
72762;SHT30;60886;55.034;73.150;2023-10-09T10:39:05;15.44;70.15
72762;SHT30;60886;55.034;73.150;2023-10-09T10:42:17;15.47;70.40
72762;SHT30;60886;55.034;73.150;2023-10-09T10:45:40;15.39;70.39
72762;SHT30;60886;55.034;73.150;2023-10-09T10:48:45;15.30;70.75
72762;SHT30;60886;55.034;73.150;2023-10-09T10:51:50;15.22;70.79
72762;SHT30;60886;55.034;73.150;2023-10-09T10:55:16;15.13;71.20
72762;SHT30;60886;55.034;73.150;2023-10-09T10:58:36;15.09;71.01
72762;SHT30;60886;55.034;73.150;2023-10-09T11:01:49;15.07;70.98
72762;SHT30;60886;55.034;73.150;2023-10-09T11:05:25;15.02;71.34
72762;SHT30;60886;55.034;73.150;2023-10-09T11:08:27;14.99;71.34
72762;SHT30;60886;55.034;73.150;2023-10-09T11:11:35;14.97;71.31
72762;SHT30;60886;55.034;73.150;2023-10-09T11:14:50;14.93;71.65
72762;SHT30;60886;55.034;73.150;2023-10-09T11:18:07;14.92;71.60
72762;SHT30;60886;55.034;73.150;2023-10-09T11:21:09;14.95;71.83
72762;SHT30;60886;55.034;73.150;2023-10-09T11:24:11;14.89;71.98
72762;SHT30;60886;55.034;73.150;2023-10-09T11:27:27;14.80;72.30
72762;SHT30;60886;55.034;73.150;2023-10-09T11:30:34;14.77;72.19
72762;SHT30;60886;55.034;73.150;2023-10-09T11:33:52;14.76;72.27
72762;SHT30;60886;55.034;73.150;2023-10-09T11:36:56;14.76;72.21
72762;SHT30;60886;55.034;73.150;2023-10-09T11:39:59;14.75;72.04
72762;SHT30;60886;55.034;73.150;2023-10-09T11:43:02;14.73;72.06
72762;SHT30;60886;55.034;73.150;2023-10-09T11:46:09;14.69;72.18
72762;SHT30;60886;55.034;73.150;2023-10-09T11:49:15;14.66;72.32
72762;SHT30;60886;55.034;73.150;2023-10-09T11:52:28;14.62;72.31
72762;SHT30;60886;55.034;73.150;2023-10-09T11:55:33;14.62;72.09
72762;SHT30;60886;55.034;73.150;2023-10-09T11:58:34;14.55;72.05
72762;SHT30;60886;55.034;73.150;2023-10-09T12:01:46;14.58;71.92
72762;SHT30;60886;55.034;73.150;2023-10-09T12:05:06;14.59;71.63
72762;SHT30;60886;55.034;73.150;2023-10-09T12:08:29;14.55;71.72
72762;SHT30;60886;55.034;73.150;2023-10-09T12:11:31;14.58;71.25
72762;SHT30;60886;55.034;73.150;2023-10-09T12:14:33;14.61;71.02
72762;SHT30;60886;55.034;73.150;2023-10-09T12:17:39;14.59;70.54
72762;SHT30;60886;55.034;73.150;2023-10-09T12:20:45;14.61;70.42
72762;SHT30;60886;55.034;73.150;2023-10-09T12:23:52;14.61;70.12
72762;SHT30;60886;55.034;73.150;2023-10-09T12:26:59;14.62;69.72
72762;SHT30;60886;55.034;73.150;2023-10-09T12:30:01;14.65;69.37
72762;SHT30;60886;55.034;73.150;2023-10-09T12:33:07;14.71;69.35
72762;SHT30;60886;55.034;73.150;2023-10-09T12:36:13;14.76;68.77
72762;SHT30;60886;55.034;73.150;2023-10-09T12:39:21;14.83;68.48
72762;SHT30;60886;55.034;73.150;2023-10-09T12:42:39;14.86;68.10
72762;SHT30;60886;55.034;73.150;2023-10-09T12:46:05;14.97;67.75
72762;SHT30;60886;55.034;73.150;2023-10-09T12:49:10;15.00;67.32
72762;SHT30;60886;55.034;73.150;2023-10-09T12:52:15;15.03;67.16
72762;SHT30;60886;55.034;73.150;2023-10-09T12:55:29;15.04;67.05
72762;SHT30;60886;55.034;73.150;2023-10-09T12:58:42;15.09;66.49
72762;SHT30;60886;55.034;73.150;2023-10-09T13:01:53;15.10;66.17
72762;SHT30;60886;55.034;73.150;2023-10-09T13:05:06;15.06;66.16
72762;SHT30;60886;55.034;73.150;2023-10-09T13:08:08;15.03;65.98
72762;SHT30;60886;55.034;73.150;2023-10-09T13:11:15;15.07;65.91
72762;SHT30;60886;55.034;73.150;2023-10-09T13:14:20;15.10;65.22
72762;SHT30;60886;55.034;73.150;2023-10-09T13:17:39;15.16;64.99
72762;SHT30;60886;55.034;73.150;2023-10-09T13:20:42;15.22;64.59
72762;SHT30;60886;55.034;73.150;2023-10-09T13:23:47;15.27;64.44
72762;SHT30;60886;55.034;73.150;2023-10-09T13:26:50;15.30;63.88
72762;SHT30;60886;55.034;73.150;2023-10-09T13:29:56;15.36;63.59
72762;SHT30;60886;55.034;73.150;2023-10-09T13:33:06;15.33;63.91
72762;SHT30;60886;55.034;73.150;2023-10-09T13:36:19;15.30;64.15
72762;SHT30;60886;55.034;73.150;2023-10-09T13:39:34;15.23;64.65
72762;SHT30;60886;55.034;73.150;2023-10-09T13:42:40;15.20;64.99
72762;SHT30;60886;55.034;73.150;2023-10-09T13:45:42;15.10;65.56
72762;SHT30;60886;55.034;73.150;2023-10-09T13:48:59;15.04;66.10
72762;SHT30;60886;55.034;73.150;2023-10-09T13:52:01;14.92;66.76
72762;SHT30;60886;55.034;73.150;2023-10-09T13:55:03;14.87;67.42
72762;SHT30;60886;55.034;73.150;2023-10-09T13:58:16;14.82;68.06
72762;SHT30;60886;55.034;73.150;2023-10-09T14:01:24;14.79;68.37
72762;SHT30;60886;55.034;73.150;2023-10-09T14:04:29;14.75;68.73
72762;SHT30;60886;55.034;73.150;2023-10-09T14:07:39;14.75;68.82
72762;SHT30;60886;55.034;73.150;2023-10-09T14:10:41;14.77;68.85
72762;SHT30;60886;55.034;73.150;2023-10-09T14:13:43;14.79;68.80
72762;SHT30;60886;55.034;73.150;2023-10-09T14:16:44;14.79;68.78
72762;SHT30;60886;55.034;73.150;2023-10-09T14:19:47;14.77;68.59
72762;SHT30;60886;55.034;73.150;2023-10-09T14:22:49;14.79;68.60
72762;SHT30;60886;55.034;73.150;2023-10-09T14:25:53;14.79;68.41
72762;SHT30;60886;55.034;73.150;2023-10-09T14:28:57;14.73;68.45
72762;SHT30;60886;55.034;73.150;2023-10-09T14:31:59;14.72;68.39
72762;SHT30;60886;55.034;73.150;2023-10-09T14:35:18;14.73;68.30
72762;SHT30;60886;55.034;73.150;2023-10-09T14:38:22;14.66;68.27
72762;SHT30;60886;55.034;73.150;2023-10-09T14:41:28;14.62;68.49
72762;SHT30;60886;55.034;73.150;2023-10-09T14:44:34;14.59;68.27
72762;SHT30;60886;55.034;73.150;2023-10-09T14:47:39;14.52;68.26
72762;SHT30;60886;55.034;73.150;2023-10-09T14:50:49;14.51;68.20
72762;SHT30;60886;55.034;73.150;2023-10-09T14:53:50;14.54;67.95
72762;SHT30;60886;55.034;73.150;2023-10-09T14:56:54;14.54;67.70
72762;SHT30;60886;55.034;73.150;2023-10-09T14:59:55;14.52;67.67
72762;SHT30;60886;55.034;73.150;2023-10-09T15:03:00;14.58;67.27
72762;SHT30;60886;55.034;73.150;2023-10-09T15:06:02;14.58;67.11
72762;SHT30;60886;55.034;73.150;2023-10-09T15:09:03;14.59;67.07
72762;SHT30;60886;55.034;73.150;2023-10-09T15:12:37;14.61;66.70
72762;SHT30;60886;55.034;73.150;2023-10-09T15:16:06;14.64;66.54
72762;SHT30;60886;55.034;73.150;2023-10-09T15:19:26;14.62;66.26
72762;SHT30;60886;55.034;73.150;2023-10-09T15:22:43;14.61;66.29
72762;SHT30;60886;55.034;73.150;2023-10-09T15:25:45;14.61;66.12
72762;SHT30;60886;55.034;73.150;2023-10-09T15:28:53;14.61;65.84
72762;SHT30;60886;55.034;73.150;2023-10-09T15:31:55;14.64;65.64
72762;SHT30;60886;55.034;73.150;2023-10-09T15:34:58;14.68;65.04
72762;SHT30;60886;55.034;73.150;2023-10-09T15:38:01;14.75;64.50
72762;SHT30;60886;55.034;73.150;2023-10-09T15:41:04;14.75;64.45
72762;SHT30;60886;55.034;73.150;2023-10-09T15:44:08;14.79;64.36
72762;SHT30;60886;55.034;73.150;2023-10-09T15:47:09;14.79;64.10
72762;SHT30;60886;55.034;73.150;2023-10-09T15:50:13;14.80;63.49
72762;SHT30;60886;55.034;73.150;2023-10-09T15:53:15;14.87;62.85
72762;SHT30;60886;55.034;73.150;2023-10-09T15:56:20;14.92;62.51
72762;SHT30;60886;55.034;73.150;2023-10-09T15:59:24;14.95;61.92
72762;SHT30;60886;55.034;73.150;2023-10-09T16:02:26;15.02;60.95
72762;SHT30;60886;55.034;73.150;2023-10-09T16:05:27;15.09;59.90
72762;SHT30;60886;55.034;73.150;2023-10-09T16:08:31;15.23;59.32
72762;SHT30;60886;55.034;73.150;2023-10-09T16:11:33;15.23;58.61
72762;SHT30;60886;55.034;73.150;2023-10-09T16:14:36;15.29;58.55
72762;SHT30;60886;55.034;73.150;2023-10-09T16:17:40;15.30;57.93
72762;SHT30;60886;55.034;73.150;2023-10-09T16:20:44;15.36;57.69
72762;SHT30;60886;55.034;73.150;2023-10-09T16:23:47;15.33;57.21
72762;SHT30;60886;55.034;73.150;2023-10-09T16:26:50;15.30;56.86
72762;SHT30;60886;55.034;73.150;2023-10-09T16:29:52;15.20;57.10
72762;SHT30;60886;55.034;73.150;2023-10-09T16:32:53;15.11;56.85
72762;SHT30;60886;55.034;73.150;2023-10-09T16:35:55;15.03;56.89
72762;SHT30;60886;55.034;73.150;2023-10-09T16:39:01;14.96;57.14
72762;SHT30;60886;55.034;73.150;2023-10-09T16:42:03;14.82;57.48
72762;SHT30;60886;55.034;73.150;2023-10-09T16:45:06;14.82;56.81
72762;SHT30;60886;55.034;73.150;2023-10-09T16:48:16;14.76;56.66
72762;SHT30;60886;55.034;73.150;2023-10-09T16:51:27;14.71;56.64
72762;SHT30;60886;55.034;73.150;2023-10-09T16:54:28;14.65;57.06
72762;SHT30;60886;55.034;73.150;2023-10-09T16:57:40;14.56;56.88
72762;SHT30;60886;55.034;73.150;2023-10-09T17:00:42;14.48;57.09
72762;SHT30;60886;55.034;73.150;2023-10-09T17:03:48;14.45;56.96
72762;SHT30;60886;55.034;73.150;2023-10-09T17:06:56;14.39;57.14
72762;SHT30;60886;55.034;73.150;2023-10-09T17:09:59;14.29;57.42
72762;SHT30;60886;55.034;73.150;2023-10-09T17:13:01;14.25;56.99
72762;SHT30;60886;55.034;73.150;2023-10-09T17:16:02;14.17;56.85
72762;SHT30;60886;55.034;73.150;2023-10-09T17:19:04;14.14;56.80
72762;SHT30;60886;55.034;73.150;2023-10-09T17:22:07;14.07;56.48
72762;SHT30;60886;55.034;73.150;2023-10-09T17:25:14;14.07;56.44
72762;SHT30;60886;55.034;73.150;2023-10-09T17:28:17;14.01;56.30
72762;SHT30;60886;55.034;73.150;2023-10-09T17:31:19;13.98;56.15
72762;SHT30;60886;55.034;73.150;2023-10-09T17:34:22;13.97;56.00
72762;SHT30;60886;55.034;73.150;2023-10-09T17:37:25;13.91;55.76
72762;SHT30;60886;55.034;73.150;2023-10-09T17:40:26;13.85;55.71
72762;SHT30;60886;55.034;73.150;2023-10-09T17:43:38;13.83;55.73
72762;SHT30;60886;55.034;73.150;2023-10-09T17:46:42;13.80;55.79
72762;SHT30;60886;55.034;73.150;2023-10-09T17:49:45;13.74;55.53
72762;SHT30;60886;55.034;73.150;2023-10-09T17:52:49;13.73;55.28
72762;SHT30;60886;55.034;73.150;2023-10-09T17:55:53;13.70;55.23
72762;SHT30;60886;55.034;73.150;2023-10-09T17:58:56;13.70;55.05
72762;SHT30;60886;55.034;73.150;2023-10-09T18:02:00;13.67;54.93
72762;SHT30;60886;55.034;73.150;2023-10-09T18:05:03;13.69;55.34
72762;SHT30;60886;55.034;73.150;2023-10-09T18:08:05;13.64;54.60
72762;SHT30;60886;55.034;73.150;2023-10-09T18:11:07;13.64;54.38
72762;SHT30;60886;55.034;73.150;2023-10-09T18:14:08;13.63;54.16
72762;SHT30;60886;55.034;73.150;2023-10-09T18:17:10;13.63;54.60
72762;SHT30;60886;55.034;73.150;2023-10-09T18:20:11;13.69;53.83
72762;SHT30;60886;55.034;73.150;2023-10-09T18:23:13;13.66;54.23
72762;SHT30;60886;55.034;73.150;2023-10-09T18:26:15;13.59;54.01
72762;SHT30;60886;55.034;73.150;2023-10-09T18:29:17;13.60;53.96
72762;SHT30;60886;55.034;73.150;2023-10-09T18:32:18;13.61;53.62
72762;SHT30;60886;55.034;73.150;2023-10-09T18:35:24;13.54;53.95
72762;SHT30;60886;55.034;73.150;2023-10-09T18:38:29;13.51;53.96
72762;SHT30;60886;55.034;73.150;2023-10-09T18:41:30;13.47;53.95
72762;SHT30;60886;55.034;73.150;2023-10-09T18:44:32;13.43;54.00
72762;SHT30;60886;55.034;73.150;2023-10-09T18:47:39;13.38;54.27
72762;SHT30;60886;55.034;73.150;2023-10-09T18:50:40;13.30;54.08
72762;SHT30;60886;55.034;73.150;2023-10-09T18:53:46;13.26;54.33
72762;SHT30;60886;55.034;73.150;2023-10-09T18:56:50;13.26;53.98
72762;SHT30;60886;55.034;73.150;2023-10-09T18:59:53;13.23;54.01
72762;SHT30;60886;55.034;73.150;2023-10-09T19:02:54;13.23;54.49
72762;SHT30;60886;55.034;73.150;2023-10-09T19:05:56;13.18;54.16
72762;SHT30;60886;55.034;73.150;2023-10-09T19:08:57;13.16;54.22
72762;SHT30;60886;55.034;73.150;2023-10-09T19:11:59;13.13;54.27
72762;SHT30;60886;55.034;73.150;2023-10-09T19:15:02;13.10;54.04
72762;SHT30;60886;55.034;73.150;2023-10-09T19:18:07;13.05;54.34
72762;SHT30;60886;55.034;73.150;2023-10-09T19:21:15;13.02;54.67
72762;SHT30;60886;55.034;73.150;2023-10-09T19:24:17;12.95;54.68
72762;SHT30;60886;55.034;73.150;2023-10-09T19:27:21;12.93;54.53
72762;SHT30;60886;55.034;73.150;2023-10-09T19:30:26;12.89;55.31
72762;SHT30;60886;55.034;73.150;2023-10-09T19:33:32;12.85;54.75
72762;SHT30;60886;55.034;73.150;2023-10-09T19:36:39;12.79;55.07
72762;SHT30;60886;55.034;73.150;2023-10-09T19:39:42;12.76;55.13
72762;SHT30;60886;55.034;73.150;2023-10-09T19:42:43;12.69;55.77